Time;durP1;ratioP1;P1;durP2;ratioP2;P2;SDS_P1;SDS_P2;PMS_P1;PMS_P2;Temp;Humidity;BMP_temperature;BMP_pressure;BME280_temperature;BME280_humidity;BME280_pressure;Samples;Min_cycle;Max_cycle;Signal;HPM_P1;HPM_P2
2021/07/13 00:01:53;;;;;;;;;;;;;;;26.58;48.53;99503.63;5091048;28;19912;-52
2021/07/13 00:04:19;;;;;;;;;;;;;;;26.54;48.60;99508.13;5090639;28;19916;-48
2021/07/13 00:06:44;;;;;;;;;;;;;;;26.41;48.94;99507.09;5090678;28;19912;-50
2021/07/13 00:09:09;;;;;;;;;;;;;;;26.47;48.97;99505.84;5091450;28;19912;-48
2021/07/13 00:11:35;;;;;;;;;;;;;;;26.37;49.28;99506.13;5090774;28;20376;-48
2021/07/13 00:14:00;;;;;;;;;;;;;;;26.16;49.55;99505.06;5091197;28;20023;-52
2021/07/13 00:16:25;;;;;;;;;;;;;;;26.24;49.51;99504.31;5090506;28;20010;-52
2021/07/13 00:18:51;;;;;;;;;;;;;;;26.26;49.39;99504.78;5090520;28;19993;-49
2021/07/13 00:21:16;;;;;;;;;;;;;;;26.37;49.11;99514.31;5108609;28;20002;-48
2021/07/13 00:23:41;;;;;;;;;;;;;;;26.24;49.45;99510.56;5110702;28;20316;-51
2021/07/13 00:26:07;;;;;;;;;;;;;;;26.22;49.63;99512.00;5110546;28;19912;-52
2021/07/13 00:28:32;;;;;;;;;;;;;;;26.17;49.47;99512.91;5110841;28;20000;-50
2021/07/13 00:30:57;;;;;;;;;;;;;;;26.35;49.29;99513.81;5111102;28;19923;-51
2021/07/13 00:33:23;;;;;;;;;;;;;;;26.26;49.04;99508.31;5111717;28;19912;-51
2021/07/13 00:35:48;;;;;;;;;;;;;;;26.20;49.18;99501.41;5111496;28;19919;-52
2021/07/13 00:38:13;;;;;;;;;;;;;;;26.30;48.77;99503.03;5111606;28;19916;-48
2021/07/13 00:40:39;;;;;;;;;;;;;;;26.25;48.55;99497.72;5111487;28;20045;-49
2021/07/13 00:43:04;;;;;;;;;;;;;;;26.26;48.42;99507.53;5111086;28;19983;-49
2021/07/13 00:45:29;;;;;;;;;;;;;;;26.26;47.99;99502.06;5110782;28;19923;-49
2021/07/13 00:47:54;;;;;;;;;;;;;;;26.37;47.43;99502.56;5110823;28;19915;-49
2021/07/13 00:50:21;;;;;;;;;;;;;;;26.45;47.22;99507.28;5109419;28;20430;-48
2021/07/13 00:52:46;;;;;;;;;;;;;;;26.26;47.29;99502.88;5111402;28;20000;-48
2021/07/13 00:55:12;;;;;;;;;;;;;;;26.33;46.90;99505.13;5101860;28;20363;-52
2021/07/13 00:57:37;;;;;;;;;;;;;;;26.52;46.45;99497.53;5090223;28;19959;-50
2021/07/13 01:00:07;;;;;;;;;;;;;;;26.26;47.06;99499.34;5090657;28;19922;-50
2021/07/13 01:02:33;;;;;;;;;;;;;;;26.44;46.59;99505.66;5090460;28;19962;-50
2021/07/13 01:05:00;;;;;;;;;;;;;;;26.56;46.36;99499.59;5089729;28;20351;-51
2021/07/13 01:07:25;;;;;;;;;;;;;;;26.41;46.77;99507.09;5089240;28;19983;-50
2021/07/13 01:09:59;;;;;;;;;;;;;;;26.32;47.10;99503.53;5090746;28;20525;-49
2021/07/13 01:12:35;;;;;;;;;;;;;;;26.40;46.80;99507.41;5090670;28;19919;-48
2021/07/13 01:15:00;;;;;;;;;;;;;;;26.31;47.25;99508.19;5088451;28;20003;-51
2021/07/13 01:17:28;;;;;;;;;;;;;;;26.40;47.27;99510.16;5088089;28;19940;-49
2021/07/13 01:20:03;;;;;;;;;;;;;;;26.33;47.25;99510.59;5095109;28;20031;-50
2021/07/13 01:22:29;;;;;;;;;;;;;;;26.37;47.33;99508.84;5089913;28;19912;-49
2021/07/13 01:24:57;;;;;;;;;;;;;;;26.37;47.55;99511.59;5090024;28;19912;-51
2021/07/13 01:27:22;;;;;;;;;;;;;;;26.30;47.69;99509.28;5089992;28;19919;-50
2021/07/13 01:29:48;;;;;;;;;;;;;;;26.22;48.08;99512.78;5089864;28;19916;-52
2021/07/13 01:32:15;;;;;;;;;;;;;;;26.21;48.17;99507.66;5090469;28;19993;-48
2021/07/13 01:34:41;;;;;;;;;;;;;;;26.14;48.51;99514.38;5089227;28;19912;-50
2021/07/13 01:37:06;;;;;;;;;;;;;;;26.08;48.65;99506.63;5089086;28;20381;-48
2021/07/13 01:39:31;;;;;;;;;;;;;;;25.97;49.05;99514.28;5089274;28;19919;-51
2021/07/13 01:41:57;;;;;;;;;;;;;;;26.11;48.81;99509.53;5090149;28;19924;-50
2021/07/13 01:44:23;;;;;;;;;;;;;;;25.97;49.22;99513.44;5089762;28;19939;-48
2021/07/13 01:46:51;;;;;;;;;;;;;;;25.91;49.45;99510.00;5088162;28;19934;-50
2021/07/13 01:49:19;;;;;;;;;;;;;;;25.80;49.82;99516.84;5088444;28;19912;-52
2021/07/13 01:51:47;;;;;;;;;;;;;;;25.88;49.26;99519.63;5088658;28;19938;-48
2021/07/13 01:54:13;;;;;;;;;;;;;;;25.92;49.21;99520.63;5090364;28;19923;-49
2021/07/13 01:56:38;;;;;;;;;;;;;;;25.90;49.37;99519.31;5088597;28;20420;-47
2021/07/13 01:59:04;;;;;;;;;;;;;;;25.85;49.58;99527.63;5089846;28;19912;-50
2021/07/13 02:01:29;;;;;;;;;;;;;;;25.73;49.90;99517.28;5089993;28;19951;-53
2021/07/13 02:03:55;;;;;;;;;;;;;;;25.63;50.07;99523.00;5089624;28;19936;-50
2021/07/13 02:06:24;;;;;;;;;;;;;;;25.55;50.31;99522.59;5089509;28;19981;-50
2021/07/13 02:08:50;;;;;;;;;;;;;;;25.49;50.35;99512.94;5089776;28;19916;-47
2021/07/13 02:11:15;;;;;;;;;;;;;;;25.35;50.68;99512.19;5089941;28;19919;-49
2021/07/13 02:13:40;;;;;;;;;;;;;;;25.26;50.74;99516.75;5088978;28;20319;-48
2021/07/13 02:16:06;;;;;;;;;;;;;;;25.38;50.33;99516.19;5090173;28;19912;-51
2021/07/13 02:18:31;;;;;;;;;;;;;;;25.29;50.64;99510.69;5093650;28;20558;-50
2021/07/13 02:20:57;;;;;;;;;;;;;;;25.33;50.04;99500.78;5108891;28;19912;-48
2021/07/13 02:23:22;;;;;;;;;;;;;;;25.29;50.12;99508.75;5113650;28;19990;-50
2021/07/13 02:25:48;;;;;;;;;;;;;;;25.44;49.73;99512.25;5113660;28;20328;-51
2021/07/13 02:28:19;;;;;;;;;;;;;;;25.39;49.36;99509.66;5113214;28;19912;-51
2021/07/13 02:30:47;;;;;;;;;;;;;;;25.40;49.20;99506.63;5113518;28;19984;-53
2021/07/13 02:33:14;;;;;;;;;;;;;;;25.21;49.35;99511.38;5113057;28;19981;-50
2021/07/13 02:35:40;;;;;;;;;;;;;;;25.22;49.44;99513.00;5112540;28;19918;-50
2021/07/13 02:38:06;;;;;;;;;;;;;;;25.13;49.65;99508.28;5114098;28;19915;-48
2021/07/13 02:40:31;;;;;;;;;;;;;;;25.04;49.99;99515.56;5113867;28;19918;-49
2021/07/13 02:42:56;;;;;;;;;;;;;;;25.15;49.61;99513.41;5112343;28;19912;-48
2021/07/13 02:45:22;;;;;;;;;;;;;;;25.10;49.32;99514.31;5112177;28;19915;-51
2021/07/13 02:47:47;;;;;;;;;;;;;;;25.20;48.81;99512.50;5111858;28;20433;-49
2021/07/13 02:50:13;;;;;;;;;;;;;;;25.09;48.83;99518.19;5112988;28;19990;-48
2021/07/13 02:52:39;;;;;;;;;;;;;;;24.97;48.89;99510.50;5095201;28;19923;-48
2021/07/13 02:55:05;;;;;;;;;;;;;;;24.98;48.93;99509.41;5105194;28;20524;-49
2021/07/13 02:57:30;;;;;;;;;;;;;;;25.09;48.78;99517.34;5092399;28;20344;-49
2021/07/13 02:59:55;;;;;;;;;;;;;;;24.90;48.83;99521.03;5092281;28;19918;-48
2021/07/13 03:02:21;;;;;;;;;;;;;;;24.83;49.26;99522.53;5091216;28;19991;-48
2021/07/13 03:04:46;;;;;;;;;;;;;;;24.77;49.42;99519.13;5090756;28;20345;-51
2021/07/13 03:07:11;;;;;;;;;;;;;;;24.92;49.23;99518.81;5091014;28;20305;-49
2021/07/13 03:09:37;;;;;;;;;;;;;;;25.04;48.86;99517.47;5091661;28;19912;-48
2021/07/13 03:12:03;;;;;;;;;;;;;;;25.09;48.85;99520.91;5092398;28;20403;-49
2021/07/13 03:14:28;;;;;;;;;;;;;;;24.98;48.98;99511.34;5092855;28;19916;-51
2021/07/13 03:16:53;;;;;;;;;;;;;;;25.01;49.04;99523.53;5090649;28;19920;-50
2021/07/13 03:19:18;;;;;;;;;;;;;;;24.91;49.42;99522.63;5092321;28;19920;-51
2021/07/13 03:21:45;;;;;;;;;;;;;;;24.91;49.41;99517.19;5111336;28;20248;-53
2021/07/13 03:24:10;;;;;;;;;;;;;;;24.94;49.41;99522.03;5110601;28;19918;-51
2021/07/13 03:26:40;;;;;;;;;;;;;;;24.95;49.30;99518.19;5110572;28;20105;-51
2021/07/13 03:29:08;;;;;;;;;;;;;;;24.87;49.54;99523.56;5110866;28;19919;-50
2021/07/13 03:31:34;;;;;;;;;;;;;;;24.84;49.77;99524.16;5111215;28;20006;-48
2021/07/13 03:34:00;;;;;;;;;;;;;;;24.88;49.60;99525.16;5112925;28;20012;-49
2021/07/13 03:36:25;;;;;;;;;;;;;;;24.84;49.68;99524.94;5110937;28;20502;-51
2021/07/13 03:38:50;;;;;;;;;;;;;;;24.69;50.36;99531.50;5112643;28;19923;-51
2021/07/13 03:41:16;;;;;;;;;;;;;;;24.76;50.21;99533.81;5112158;28;19911;-49
2021/07/13 03:43:41;;;;;;;;;;;;;;;24.91;49.92;99528.06;5110547;28;19919;-52
2021/07/13 03:46:07;;;;;;;;;;;;;;;24.99;49.60;99526.53;5111961;28;19912;-52
2021/07/13 03:48:32;;;;;;;;;;;;;;;25.38;48.85;99527.91;5112129;28;20272;-52
2021/07/13 03:50:57;;;;;;;;;;;;;;;25.59;48.29;99524.69;5110872;28;19957;-49
2021/07/13 03:53:22;;;;;;;;;;;;;;;25.52;48.55;99531.38;5111385;28;20325;-50
2021/07/13 03:55:48;;;;;;;;;;;;;;;25.70;47.85;99532.34;5097833;28;19916;-52
2021/07/13 03:58:13;;;;;;;;;;;;;;;25.90;47.81;99527.50;5091057;28;19927;-52
2021/07/13 04:00:38;;;;;;;;;;;;;;;25.87;47.73;99528.09;5091471;28;19923;-49
2021/07/13 04:03:03;;;;;;;;;;;;;;;26.28;46.71;99532.56;5091190;28;19990;-51
2021/07/13 04:05:29;;;;;;;;;;;;;;;26.27;46.39;99522.75;5091389;28;20320;-51
2021/07/13 04:07:54;;;;;;;;;;;;;;;26.39;46.53;99531.16;5091892;28;19919;-51
2021/07/13 04:10:20;;;;;;;;;;;;;;;26.84;45.21;99522.03;5090571;28;19919;-50
2021/07/13 04:12:45;;;;;;;;;;;;;;;27.00;44.89;99523.19;5090559;28;20454;-51
2021/07/13 04:15:11;;;;;;;;;;;;;;;27.17;44.47;99516.97;5089637;28;19919;-50
2021/07/13 04:17:36;;;;;;;;;;;;;;;27.44;44.13;99523.28;5090100;28;19920;-53
2021/07/13 04:20:03;;;;;;;;;;;;;;;27.49;43.77;99523.91;5097614;28;19920;-48
2021/07/13 04:22:28;;;;;;;;;;;;;;;27.51;43.62;99523.56;5110522;28;19915;-51
2021/07/13 04:24:53;;;;;;;;;;;;;;;27.84;42.90;99526.59;5110313;28;19912;-49
2021/07/13 04:27:18;;;;;;;;;;;;;;;28.17;42.03;99514.34;5110256;28;19919;-50
2021/07/13 04:29:44;;;;;;;;;;;;;;;28.25;41.70;99518.97;5110608;28;20006;-48
2021/07/13 04:32:09;;;;;;;;;;;;;;;28.40;41.50;99523.09;5110708;28;20386;-47
2021/07/13 04:34:34;;;;;;;;;;;;;;;28.60;41.17;99529.81;5110995;28;19912;-48
2021/07/13 04:37:00;;;;;;;;;;;;;;;28.80;40.83;99526.31;5101947;28;20410;-49
2021/07/13 04:39:25;;;;;;;;;;;;;;;28.89;40.38;99511.78;5089437;28;19912;-49
2021/07/13 04:41:50;;;;;;;;;;;;;;;29.12;40.12;99518.56;5089825;28;19947;-50
2021/07/13 04:44:16;;;;;;;;;;;;;;;29.53;38.85;99522.47;5089325;28;19912;-51
2021/07/13 04:46:41;;;;;;;;;;;;;;;29.70;38.35;99521.50;5089426;28;19919;-49
2021/07/13 04:49:08;;;;;;;;;;;;;;;29.86;37.99;99527.19;5082810;28;19916;-51
2021/07/13 04:51:34;;;;;;;;;;;;;;;30.10;37.47;99525.63;5070272;28;19978;-47
2021/07/13 04:53:59;;;;;;;;;;;;;;;30.32;37.00;99521.72;5070766;28;19989;-49
2021/07/13 04:56:24;;;;;;;;;;;;;;;31.14;35.82;99518.03;5088182;28;19938;-36
2021/07/13 04:58:50;;;;;;;;;;;;;;;31.59;34.56;99517.00;5089801;28;19912;-38
2021/07/13 05:01:15;;;;;;;;;;;;;;;30.87;35.01;99514.03;5090445;28;19916;-39
2021/07/13 05:03:40;;;;;;;;;;;;;;;30.71;35.50;99523.00;5090191;28;20416;-39
2021/07/13 05:06:06;;;;;;;;;;;;;;;30.85;35.28;99519.88;5089776;28;19949;-38
2021/07/13 05:08:31;;;;;;;;;;;;;;;30.93;34.65;99521.72;5090159;28;20364;-37
2021/07/13 05:10:56;;;;;;;;;;;;;;;31.40;34.77;99519.53;5089808;28;19980;-37
2021/07/13 05:13:21;;;;;;;;;;;;;;;31.87;33.73;99522.50;5089975;28;19999;-38
2021/07/13 05:15:47;;;;;;;;;;;;;;;32.35;32.84;99528.06;5089601;28;19990;-38
2021/07/13 05:18:12;;;;;;;;;;;;;;;32.08;32.48;99522.28;5089693;28;19924;-38
2021/07/13 05:20:40;;;;;;;;;;;;;;;31.88;33.19;99518.56;5089669;28;19912;-38
2021/07/13 05:23:08;;;;;;;;;;;;;;;31.99;32.42;99523.53;5089373;28;19943;-38
2021/07/13 05:25:33;;;;;;;;;;;;;;;32.36;32.20;99524.16;5088934;28;19919;-38
2021/07/13 05:27:59;;;;;;;;;;;;;;;32.69;31.64;99517.47;5087853;28;19916;-38
2021/07/13 05:30:24;;;;;;;;;;;;;;;33.80;30.22;99521.84;5088919;28;20318;-38
2021/07/13 05:32:51;;;;;;;;;;;;;;;33.46;30.57;99516.81;5089845;28;20002;-38
2021/07/13 05:35:17;;;;;;;;;;;;;;;33.07;31.05;99516.78;5089971;28;19919;-38
2021/07/13 05:37:42;;;;;;;;;;;;;;;33.46;30.63;99516.81;5090082;28;19916;-39
2021/07/13 05:40:08;;;;;;;;;;;;;;;33.77;30.29;99520.59;5089886;28;19938;-38
2021/07/13 05:42:33;;;;;;;;;;;;;;;34.06;30.01;99521.94;5089959;28;19912;-37
2021/07/13 05:44:59;;;;;;;;;;;;;;;34.28;30.15;99517.59;5088908;28;19970;-38
2021/07/13 05:47:24;;;;;;;;;;;;;;;33.95;30.66;99512.66;5087657;28;20007;-38
2021/07/13 05:49:50;;;;;;;;;;;;;;;34.00;30.54;99515.09;5088184;28;19999;-39
2021/07/13 05:52:15;;;;;;;;;;;;;;;34.30;30.31;99511.72;5092669;28;20303;-37
2021/07/13 05:54:40;;;;;;;;;;;;;;;34.72;29.52;99515.56;5091269;28;19912;-38
2021/07/13 05:57:06;;;;;;;;;;;;;;;35.50;28.98;99515.81;5093507;28;19912;-50
2021/07/13 05:59:31;;;;;;;;;;;;;;;35.30;29.30;99517.97;5093107;28;19951;-51
2021/07/13 06:01:57;;;;;;;;;;;;;;;35.07;29.00;99512.47;5073674;28;20368;-51
2021/07/13 06:04:22;;;;;;;;;;;;;;;35.16;29.28;99510.22;5091918;28;20003;-51
2021/07/13 06:06:47;;;;;;;;;;;;;;;35.38;29.00;99516.88;5091632;28;19912;-52
2021/07/13 06:09:12;;;;;;;;;;;;;;;35.77;28.21;99516.53;5091814;28;20323;-52
2021/07/13 06:11:38;;;;;;;;;;;;;;;36.69;26.98;99520.56;5092869;28;19919;-52
2021/07/13 06:14:03;;;;;;;;;;;;;;;36.07;27.81;99520.38;5093208;28;20427;-52
2021/07/13 06:16:28;;;;;;;;;;;;;;;36.28;27.66;99517.03;5090605;28;19940;-50
2021/07/13 06:18:54;;;;;;;;;;;;;;;36.26;27.37;99514.66;5091302;28;20305;-51
2021/07/13 06:21:19;;;;;;;;;;;;;;;36.53;27.06;99518.03;5109198;28;20303;-51
2021/07/13 06:23:44;;;;;;;;;;;;;;;36.98;26.76;99523.50;5111195;28;20002;-51
2021/07/13 06:26:10;;;;;;;;;;;;;;;36.26;26.87;99513.88;5111196;28;20316;-51
2021/07/13 06:28:35;;;;;;;;;;;;;;;36.24;27.59;99505.16;5111062;28;20413;-51
2021/07/13 06:31:00;;;;;;;;;;;;;;;36.40;26.86;99508.41;5112302;28;20256;-52
2021/07/13 06:33:25;;;;;;;;;;;;;;;36.60;26.34;99500.66;5113048;28;19919;-49
2021/07/13 06:35:51;;;;;;;;;;;;;;;36.98;25.93;99507.66;5112832;28;19912;-51
2021/07/13 06:38:16;;;;;;;;;;;;;;;37.80;24.84;99497.28;5112528;28;20003;-53
2021/07/13 06:40:42;;;;;;;;;;;;;;;37.32;25.34;99513.00;5112459;28;19923;-51
2021/07/13 06:43:07;;;;;;;;;;;;;;;37.15;25.84;99520.03;5112276;28;20014;-53
2021/07/13 06:45:32;;;;;;;;;;;;;;;36.88;25.81;99518.66;5112436;28;19919;-52
2021/07/13 06:47:58;;;;;;;;;;;;;;;36.95;26.01;99510.41;5098744;28;20349;-51
2021/07/13 06:50:23;;;;;;;;;;;;;;;37.01;25.86;99506.06;5092095;28;19912;-52
2021/07/13 06:52:49;;;;;;;;;;;;;;;36.76;25.90;99506.72;5092457;28;19930;-50
2021/07/13 06:55:14;;;;;;;;;;;;;;;36.62;26.05;99508.59;5092045;28;19916;-51
2021/07/13 06:57:40;;;;;;;;;;;;;;;36.89;26.14;99501.66;5091522;28;19923;-51
2021/07/13 07:00:06;;;;;;;;;;;;;;;36.91;26.76;99507.59;5092041;28;19919;-52
2021/07/13 07:02:31;;;;;;;;;;;;;;;37.53;25.62;99500.38;5090574;28;20298;-52
2021/07/13 07:04:57;;;;;;;;;;;;;;;38.29;23.93;99495.75;5091585;28;20003;-52
2021/07/13 07:07:22;;;;;;;;;;;;;;;37.16;25.28;99495.88;5091562;28;19912;-51
2021/07/13 07:09:47;;;;;;;;;;;;;;;36.93;25.67;99505.22;5091851;28;19912;-52
2021/07/13 07:12:12;;;;;;;;;;;;;;;36.51;25.86;99487.13;5091743;28;20009;-52
2021/07/13 07:14:38;;;;;;;;;;;;;;;36.79;25.45;99486.56;5091563;28;20375;-51
2021/07/13 07:17:03;;;;;;;;;;;;;;;37.50;25.00;99485.28;5091162;28;19924;-51
2021/07/13 07:19:28;;;;;;;;;;;;;;;37.52;25.36;99496.00;5094041;28;19930;-53
2021/07/13 07:21:54;;;;;;;;;;;;;;;37.17;25.89;99484.41;5111551;28;20275;-50
2021/07/13 07:24:19;;;;;;;;;;;;;;;37.11;26.18;99488.69;5110948;28;19920;-52
2021/07/13 07:26:44;;;;;;;;;;;;;;;37.35;25.65;99478.91;5111376;28;20011;-50
2021/07/13 07:29:09;;;;;;;;;;;;;;;37.79;25.34;99484.59;5111512;28;19980;-51
2021/07/13 07:31:35;;;;;;;;;;;;;;;38.97;23.50;99480.94;5104570;28;20318;-53
2021/07/13 07:34:01;;;;;;;;;;;;;;;38.38;23.98;99482.25;5091509;28;19966;-51
2021/07/13 07:36:27;;;;;;;;;;;;;;;37.42;24.61;99477.34;5089245;28;19912;-51
2021/07/13 07:38:52;;;;;;;;;;;;;;;36.90;25.53;99472.75;5091188;28;19982;-51
2021/07/13 07:41:19;;;;;;;;;;;;;;;37.00;25.35;99475.97;5090514;28;19919;-51
2021/07/13 07:43:45;;;;;;;;;;;;;;;37.40;25.51;99474.97;5090273;28;20388;-52
2021/07/13 07:46:10;;;;;;;;;;;;;;;38.10;24.94;99474.75;5090465;28;19916;-52
2021/07/13 07:48:35;;;;;;;;;;;;;;;38.17;25.08;99469.16;5091123;28;20352;-40
2021/07/13 07:51:02;;;;;;;;;;;;;;;38.04;25.17;99474.31;5091476;28;19916;-39
2021/07/13 07:53:27;;;;;;;;;;;;;;;38.25;24.41;99469.94;5091789;28;19939;-39
2021/07/13 07:55:52;;;;;;;;;;;;;;;38.27;24.41;99473.13;5091052;28;20356;-39
2021/07/13 07:58:17;;;;;;;;;;;;;;;38.60;23.98;99473.91;5090753;28;20007;-49
2021/07/13 08:00:43;;;;;;;;;;;;;;;39.55;22.96;99473.19;5091112;28;19935;-52
2021/07/13 08:03:08;;;;;;;;;;;;;;;39.24;23.04;99470.94;5090562;28;19955;-52
2021/07/13 08:05:37;;;;;;;;;;;;;;;38.56;23.14;99473.09;5089965;28;20355;-52
2021/07/13 08:08:02;;;;;;;;;;;;;;;38.50;23.21;99469.94;5090826;28;20304;-52
2021/07/13 08:10:27;;;;;;;;;;;;;;;38.53;22.83;99471.91;5089540;28;19912;-52
2021/07/13 08:12:52;;;;;;;;;;;;;;;38.37;23.60;99466.00;5091217;28;19915;-50
2021/07/13 08:15:18;;;;;;;;;;;;;;;39.49;22.96;99461.69;5090854;28;20367;-51
2021/07/13 08:17:45;;;;;;;;;;;;;;;38.78;23.69;99457.19;5090194;28;20004;-52
2021/07/13 08:20:12;;;;;;;;;;;;;;;38.46;23.87;99458.00;5099442;28;19920;-52
2021/07/13 08:22:37;;;;;;;;;;;;;;;38.59;24.11;99461.22;5093401;28;19924;-52
2021/07/13 08:25:03;;;;;;;;;;;;;;;38.80;23.92;99457.56;5088838;28;19926;-50
2021/07/13 08:27:29;;;;;;;;;;;;;;;38.74;23.21;99454.41;5094583;28;19957;-50
2021/07/13 08:29:54;;;;;;;;;;;;;;;39.69;23.16;99457.16;5092373;28;19972;-52
2021/07/13 08:32:20;;;;;;;;;;;;;;;39.24;22.98;99448.69;5096555;28;19923;-52
2021/07/13 08:34:45;;;;;;;;;;;;;;;39.15;23.04;99453.09;5095727;28;19920;-51
2021/07/13 08:37:10;;;;;;;;;;;;;;;39.26;22.83;99440.72;5091904;28;19998;-51
2021/07/13 08:39:35;;;;;;;;;;;;;;;38.70;23.27;99442.50;5093166;28;19973;-52
2021/07/13 08:42:03;;;;;;;;;;;;;;;39.19;22.61;99445.53;5095671;28;20044;-52
2021/07/13 08:44:28;;;;;;;;;;;;;;;39.27;23.07;99445.06;5091567;28;20311;-52
2021/07/13 08:46:53;;;;;;;;;;;;;;;39.93;21.57;99437.13;5090990;28;19920;-52
2021/07/13 08:49:19;;;;;;;;;;;;;;;38.80;22.21;99446.44;5097190;28;20364;-52
2021/07/13 08:51:45;;;;;;;;;;;;;;;37.97;23.91;99437.38;5090877;28;19980;-50
2021/07/13 08:54:10;;;;;;;;;;;;;;;37.94;23.77;99436.22;5097048;28;20006;-51
2021/07/13 08:56:35;;;;;;;;;;;;;;;38.09;24.06;99437.81;5088628;28;20388;-52
2021/07/13 08:59:01;;;;;;;;;;;;;;;38.64;24.19;99436.56;5088413;28;19912;-51
2021/07/13 09:01:26;;;;;;;;;;;;;;;38.40;22.74;99431.84;5088668;28;19916;-50
2021/07/13 09:03:54;;;;;;;;;;;;;;;38.44;23.06;99436.22;5088500;28;19916;-52
2021/07/13 09:06:20;;;;;;;;;;;;;;;38.04;23.53;99429.88;5088613;28;20011;-52
2021/07/13 09:08:45;;;;;;;;;;;;;;;38.10;22.82;99431.09;5088876;28;20444;-49
2021/07/13 09:11:14;;;;;;;;;;;;;;;37.81;23.01;99435.03;5088634;28;19916;-52
2021/07/13 09:14:00;;;;;;;;;;;;;;;38.29;22.40;99427.09;5088889;28;19980;-53
2021/07/13 09:16:26;;;;;;;;;;;;;;;38.60;22.96;99430.25;5088083;28;20449;-52
2021/07/13 09:18:54;;;;;;;;;;;;;;;38.37;22.85;99427.09;5088622;28;20387;-52
2021/07/13 09:21:23;;;;;;;;;;;;;;;37.33;24.81;99403.59;5088030;28;19948;-51
2021/07/13 09:24:21;;;;;;;;;;;;;;;37.69;24.88;99420.34;5088132;28;20318;-52
2021/07/13 09:26:46;;;;;;;;;;;;;;;38.10;23.83;99421.97;5083214;28;19919;-52
2021/07/13 09:29:30;;;;;;;;;;;;;;;37.89;23.33;99422.72;5088502;28;19912;-38
2021/07/13 09:31:56;;;;;;;;;;;;;;;38.28;22.95;99421.94;5087401;28;20002;-38
2021/07/13 09:34:21;;;;;;;;;;;;;;;37.62;22.81;99420.31;5089481;28;19954;-38
2021/07/13 09:36:53;;;;;;;;;;;;;;;37.35;23.12;99431.75;5089455;28;20300;-39
2021/07/13 09:39:24;;;;;;;;;;;;;;;37.14;22.64;99428.91;5089692;28;19916;-39
2021/07/13 09:41:51;;;;;;;;;;;;;;;37.47;22.51;99419.50;5087352;28;20030;-39
2021/07/13 09:44:16;;;;;;;;;;;;;;;37.50;22.41;99415.13;5088856;28;19934;-37
2021/07/13 09:46:44;;;;;;;;;;;;;;;37.49;21.93;99419.91;5086916;28;19916;-52
2021/07/13 09:49:15;;;;;;;;;;;;;;;37.50;21.34;99418.69;5088481;28;20023;-51
2021/07/13 09:52:01;;;;;;;;;;;;;;;37.64;21.71;99422.72;5088242;28;19958;-52
2021/07/13 09:54:27;;;;;;;;;;;;;;;37.10;21.61;99419.75;5086120;28;20454;-50
2021/07/13 09:56:52;;;;;;;;;;;;;;;37.39;21.86;99411.53;5088383;28;19912;-52
2021/07/13 09:59:18;;;;;;;;;;;;;;;37.47;21.32;99402.84;5088310;28;19923;-52
2021/07/13 10:01:43;;;;;;;;;;;;;;;37.90;21.23;99407.66;5088548;28;19912;-51
2021/07/13 10:04:08;;;;;;;;;;;;;;;39.14;19.40;99407.00;5088358;28;19913;-53
2021/07/13 10:06:33;;;;;;;;;;;;;;;38.03;21.31;99397.75;5088303;28;20007;-50
2021/07/13 10:08:59;;;;;;;;;;;;;;;38.02;22.01;99398.13;5088563;28;19969;-50
2021/07/13 10:11:25;;;;;;;;;;;;;;;38.34;22.76;99392.56;5088645;28;19919;-50
2021/07/13 10:13:50;;;;;;;;;;;;;;;38.83;22.31;99392.84;5087343;28;20394;-53
2021/07/13 10:16:15;;;;;;;;;;;;;;;38.74;21.46;99387.69;5083359;28;19920;-53
2021/07/13 10:18:43;;;;;;;;;;;;;;;38.84;21.96;99384.09;5087386;28;19981;-51
2021/07/13 10:21:09;;;;;;;;;;;;;;;39.30;21.88;99393.41;5090668;28;19916;-53
2021/07/13 10:23:34;;;;;;;;;;;;;;;38.79;21.25;99378.94;5095311;28;20391;-53
2021/07/13 10:25:59;;;;;;;;;;;;;;;38.31;21.34;99382.25;5088436;28;19931;-53
2021/07/13 10:28:31;;;;;;;;;;;;;;;38.17;22.01;99383.06;5091889;28;19966;-51
2021/07/13 10:30:56;;;;;;;;;;;;;;;38.27;21.89;99382.25;5092054;28;20065;-51
2021/07/13 10:33:29;;;;;;;;;;;;;;;38.59;22.18;99370.28;5088529;28;20003;-51
2021/07/13 10:35:56;;;;;;;;;;;;;;;39.09;21.76;99377.66;5087872;28;20340;-51
2021/07/13 10:38:23;;;;;;;;;;;;;;;38.97;20.77;99378.84;5090962;28;20304;-51
2021/07/13 10:40:49;;;;;;;;;;;;;;;38.45;21.55;99375.88;5091170;28;20315;-51
2021/07/13 10:43:15;;;;;;;;;;;;;;;38.47;21.37;99371.47;5092416;28;19938;-52
2021/07/13 10:45:42;;;;;;;;;;;;;;;38.61;21.24;99367.09;5091943;28;19923;-52
2021/07/13 10:48:14;;;;;;;;;;;;;;;38.31;21.68;99369.16;5091519;28;19912;-53
2021/07/13 10:50:40;;;;;;;;;;;;;;;38.02;21.03;99367.59;5090879;28;20267;-50
2021/07/13 10:53:15;;;;;;;;;;;;;;;38.64;20.51;99358.75;5091458;28;19913;-52
2021/07/13 10:55:41;;;;;;;;;;;;;;;38.75;20.39;99358.72;5090528;28;20367;-52
2021/07/13 10:58:09;;;;;;;;;;;;;;;38.63;20.38;99353.59;5090886;28;19916;-52
2021/07/13 11:00:50;;;;;;;;;;;;;;;38.79;19.51;99358.69;5091025;28;19916;-52
2021/07/13 11:03:30;;;;;;;;;;;;;;;38.60;18.95;99346.06;5090527;28;19912;-52
2021/07/13 11:05:59;;;;;;;;;;;;;;;38.76;19.91;99348.38;5090961;28;19980;-52
2021/07/13 11:09:00;;;;;;;;;;;;;;;39.09;19.63;99349.81;5091088;28;19916;-52
2021/07/13 11:11:28;;;;;;;;;;;;;;;40.38;18.81;99347.97;5078674;28;19912;-52
2021/07/13 11:14:05;;;;;;;;;;;;;;;39.93;19.54;99339.66;5091066;28;19919;-52
2021/07/13 11:16:38;;;;;;;;;;;;;;;39.79;19.17;99335.78;5090436;28;19920;-52
2021/07/13 11:19:04;;;;;;;;;;;;;;;39.54;20.01;99333.22;5090392;28;19969;-51
2021/07/13 11:21:30;;;;;;;;;;;;;;;39.48;19.61;99332.88;5090403;28;20394;-53
2021/07/13 11:23:59;;;;;;;;;;;;;;;39.07;19.29;99335.50;5090335;28;20294;-52
2021/07/13 11:26:24;;;;;;;;;;;;;;;39.66;19.42;99329.94;5090028;28;19912;-51
2021/07/13 11:28:54;;;;;;;;;;;;;;;39.76;19.09;99331.06;5088439;28;19916;-51
2021/07/13 11:31:29;;;;;;;;;;;;;;;39.55;19.31;99323.69;5090400;28;19922;-53
2021/07/13 11:33:58;;;;;;;;;;;;;;;39.30;19.89;99318.28;5091721;28;19919;-53
2021/07/13 11:36:33;;;;;;;;;;;;;;;39.26;19.42;99318.31;5091408;28;19918;-53
2021/07/13 11:38:59;;;;;;;;;;;;;;;38.97;19.71;99312.09;5091623;28;20011;-52
2021/07/13 11:41:25;;;;;;;;;;;;;;;38.96;18.72;99306.97;5091422;28;20054;-51
2021/07/13 11:43:51;;;;;;;;;;;;;;;39.12;17.63;99307.28;5090786;28;19916;-51
2021/07/13 11:46:20;;;;;;;;;;;;;;;38.63;18.88;99309.13;5090703;28;19931;-51
2021/07/13 11:48:55;;;;;;;;;;;;;;;38.09;18.90;99296.19;5090372;28;19912;-52
2021/07/13 11:51:28;;;;;;;;;;;;;;;38.06;18.91;99304.50;5094791;28;19912;-52
2021/07/13 11:54:03;;;;;;;;;;;;;;;38.09;18.24;99293.41;5099260;28;20055;-52
2021/07/13 11:56:28;;;;;;;;;;;;;;;38.25;17.40;99294.94;5110882;28;19912;-51
2021/07/13 11:58:54;;;;;;;;;;;;;;;38.47;18.20;99290.13;5098112;28;19924;-53
2021/07/13 12:01:21;;;;;;;;;;;;;;;39.11;18.17;99291.81;5090790;28;19920;-52
2021/07/13 12:03:46;;;;;;;;;;;;;;;39.36;16.50;99290.81;5090900;28;19924;-52
2021/07/13 12:06:12;;;;;;;;;;;;;;;39.84;16.69;99298.34;5090891;28;19912;-52
2021/07/13 12:08:37;;;;;;;;;;;;;;;39.76;15.76;99283.72;5090740;28;19912;-52
2021/07/13 12:11:03;;;;;;;;;;;;;;;39.64;15.66;99282.25;5091058;28;19912;-52
2021/07/13 12:13:28;;;;;;;;;;;;;;;39.76;15.96;99289.28;5090890;28;19912;-50
2021/07/13 12:15:54;;;;;;;;;;;;;;;39.59;15.52;99293.81;5088886;28;19935;-53
2021/07/13 12:18:20;;;;;;;;;;;;;;;39.54;15.27;99282.34;5095158;28;19989;-53
2021/07/13 12:20:45;;;;;;;;;;;;;;;39.45;16.43;99282.81;5110634;28;19919;-52
2021/07/13 12:23:10;;;;;;;;;;;;;;;39.48;16.60;99276.44;5109038;28;20013;-51
2021/07/13 12:25:35;;;;;;;;;;;;;;;39.91;16.92;99283.59;5110837;28;19912;-52
2021/07/13 12:28:10;;;;;;;;;;;;;;;38.87;17.20;99268.50;5110275;28;20129;-52
2021/07/13 12:30:36;;;;;;;;;;;;;;;38.67;16.50;99268.19;5109251;28;19929;-52
2021/07/13 12:33:02;;;;;;;;;;;;;;;39.16;15.94;99269.09;5110710;28;19908;-52
2021/07/13 12:35:27;;;;;;;;;;;;;;;39.84;15.22;99267.72;5110395;28;20353;-53
2021/07/13 12:37:53;;;;;;;;;;;;;;;40.24;14.62;99276.47;5109162;28;19912;-53
2021/07/13 12:40:18;;;;;;;;;;;;;;;39.98;16.86;99262.00;5110665;28;20383;-52
2021/07/13 12:42:47;;;;;;;;;;;;;;;39.63;17.14;99271.53;5100283;28;19912;-53
2021/07/13 12:45:16;;;;;;;;;;;;;;;39.09;17.46;99263.59;5089499;28;19912;-52